createdAt,value
2023-01-23T00:00:55.506Z,44.47
2023-01-23T00:01:55.499Z,45.60
2023-01-23T00:02:55.480Z,44.15
2023-01-23T00:03:55.548Z,44.47
2023-01-23T00:04:55.459Z,49.47
2023-01-23T00:05:55.443Z,45.92
2023-01-23T00:06:55.445Z,44.79
2023-01-23T00:07:55.431Z,47.37
2023-01-23T00:08:55.501Z,49.47
2023-01-23T00:09:55.399Z,45.44
2023-01-23T00:10:55.399Z,43.83
2023-01-23T00:11:55.384Z,44.79
2023-01-23T00:12:55.391Z,44.63
2023-01-23T00:13:55.368Z,44.15
2023-01-23T00:14:55.356Z,44.47
2023-01-23T00:15:56.355Z,49.15
2023-01-23T00:16:55.339Z,45.76
2023-01-23T00:17:55.322Z,46.25
2023-01-23T00:18:55.308Z,47.53
2023-01-23T00:19:55.303Z,43.83
2023-01-23T00:20:55.299Z,44.63
2023-01-23T00:21:55.286Z,43.99
2023-01-23T00:22:55.271Z,43.02
2023-01-23T00:23:55.275Z,43.67
2023-01-23T00:24:55.328Z,43.83
2023-01-23T00:25:55.257Z,43.83
2023-01-23T00:26:55.225Z,43.99
2023-01-23T00:27:55.235Z,43.51
2023-01-23T00:28:55.222Z,43.83
2023-01-23T00:29:55.207Z,44.31
2023-01-23T00:30:55.254Z,45.60
2023-01-23T00:31:55.242Z,45.76
2023-01-23T00:32:55.172Z,44.15
2023-01-23T00:33:55.161Z,44.31
2023-01-23T00:34:55.163Z,43.99
2023-01-23T00:35:55.142Z,43.67
2023-01-23T00:36:55.125Z,46.25
2023-01-23T00:37:55.191Z,44.15
2023-01-23T00:38:55.095Z,43.67
2023-01-23T00:39:55.081Z,44.47
2023-01-23T00:40:55.157Z,45.12
2023-01-23T00:41:55.073Z,45.76
2023-01-23T00:42:55.054Z,43.99
2023-01-23T00:43:55.038Z,46.25
2023-01-23T00:44:55.033Z,51.24
2023-01-23T00:45:55.016Z,49.31
2023-01-23T00:46:55.016Z,44.79
2023-01-23T00:47:54.992Z,44.79
2023-01-23T00:48:54.980Z,43.99
2023-01-23T00:49:54.976Z,43.83
2023-01-23T00:50:54.963Z,48.50
2023-01-23T00:51:54.964Z,44.63
2023-01-23T00:52:54.956Z,44.31
2023-01-23T00:53:54.929Z,44.47
2023-01-23T00:54:54.921Z,51.56
2023-01-23T00:55:54.907Z,44.96
2023-01-23T00:56:54.981Z,44.96
2023-01-23T00:57:54.899Z,45.92
2023-01-23T00:58:54.891Z,45.28
2023-01-23T00:59:54.863Z,44.96
2023-01-23T01:00:54.855Z,43.02
2023-01-23T01:01:54.850Z,44.79
2023-01-23T01:02:54.902Z,51.24
2023-01-23T01:03:54.822Z,44.31
2023-01-23T01:04:54.812Z,44.96
2023-01-23T01:05:54.797Z,44.47
2023-01-23T01:06:54.799Z,44.15
2023-01-23T01:07:54.799Z,43.99
2023-01-23T01:08:54.765Z,43.83
2023-01-23T01:09:54.755Z,44.15
2023-01-23T01:10:54.743Z,47.53
2023-01-23T01:11:54.733Z,44.47
2023-01-23T01:12:54.826Z,44.47
2023-01-23T01:13:54.737Z,47.70
2023-01-23T01:14:54.706Z,44.96
2023-01-23T01:15:54.765Z,44.15
2023-01-23T01:16:54.693Z,44.79
2023-01-23T01:17:54.664Z,48.50
2023-01-23T01:18:54.670Z,44.63
2023-01-23T01:19:54.650Z,45.76
2023-01-23T01:20:54.661Z,44.47
2023-01-23T01:21:54.631Z,44.15
2023-01-23T01:22:54.636Z,43.67
2023-01-23T01:23:54.613Z,43.83
2023-01-23T01:24:54.591Z,45.60
2023-01-23T01:25:54.582Z,45.28
2023-01-23T01:26:54.577Z,44.79
2023-01-23T01:27:54.578Z,44.96
2023-01-23T01:28:54.636Z,52.21
2023-01-23T01:29:54.540Z,44.63
2023-01-23T01:30:54.607Z,46.25
2023-01-23T01:31:54.573Z,44.79
2023-01-23T01:32:54.528Z,45.76
2023-01-23T01:33:54.558Z,44.79
2023-01-23T01:34:54.490Z,44.31
2023-01-23T01:35:54.478Z,47.05
2023-01-23T01:36:54.461Z,45.60
2023-01-23T01:37:54.472Z,45.60
2023-01-23T01:38:54.451Z,46.08
2023-01-23T01:39:54.426Z,46.41
2023-01-23T01:40:54.429Z,48.66
2023-01-23T01:41:54.430Z,43.67
2023-01-23T01:42:54.419Z,44.47
2023-01-23T01:43:55.391Z,46.25
2023-01-23T01:44:54.474Z,45.44
2023-01-23T01:45:54.372Z,43.99
2023-01-23T01:46:54.448Z,45.60
2023-01-23T01:47:54.344Z,43.99
2023-01-23T01:48:54.354Z,43.83
2023-01-23T01:49:54.325Z,50.76
2023-01-23T01:50:54.371Z,43.99
2023-01-23T01:51:54.310Z,44.15
2023-01-23T01:52:54.301Z,43.99
2023-01-23T01:53:54.290Z,46.25
2023-01-23T01:54:54.277Z,44.96
2023-01-23T01:55:54.265Z,43.67
2023-01-23T01:56:54.276Z,44.79
2023-01-23T01:57:54.280Z,44.63
2023-01-23T01:58:54.248Z,45.12
2023-01-23T01:59:54.219Z,44.47
2023-01-23T02:00:54.378Z,47.05
2023-01-23T02:01:54.302Z,47.86
2023-01-23T02:02:54.206Z,47.53
2023-01-23T02:03:54.183Z,43.99
2023-01-23T02:04:54.179Z,44.15
2023-01-23T02:05:54.158Z,46.41
2023-01-23T02:06:54.141Z,47.70
2023-01-23T02:07:54.151Z,50.11
2023-01-23T02:08:54.129Z,44.79
2023-01-23T02:09:54.122Z,43.67
2023-01-23T02:10:54.115Z,43.51
2023-01-23T02:11:54.095Z,43.83
2023-01-23T02:12:54.089Z,44.63
2023-01-23T02:13:54.074Z,46.41
2023-01-23T02:14:54.075Z,43.83
2023-01-23T02:15:54.050Z,43.67
2023-01-23T02:16:54.130Z,44.47
2023-01-23T02:17:54.024Z,45.28
2023-01-23T02:18:54.016Z,45.92
2023-01-23T02:19:54.032Z,44.79
2023-01-23T02:20:54.009Z,44.15
2023-01-23T02:21:53.983Z,44.63
2023-01-23T02:22:53.985Z,44.31
2023-01-23T02:23:53.971Z,44.15
2023-01-23T02:24:53.952Z,52.21
2023-01-23T02:25:53.966Z,44.47
2023-01-23T02:26:53.946Z,45.92
2023-01-23T02:27:53.919Z,44.47
2023-01-23T02:28:53.914Z,44.47
2023-01-23T02:29:53.923Z,44.15
2023-01-23T02:30:53.939Z,44.47
2023-01-23T02:31:53.958Z,43.99
2023-01-23T02:32:53.968Z,43.67
2023-01-23T02:33:53.883Z,44.96
2023-01-23T02:34:53.850Z,47.53
2023-01-23T02:35:53.859Z,46.73
2023-01-23T02:36:53.831Z,46.73
2023-01-23T02:37:53.824Z,43.67
2023-01-23T02:38:53.811Z,46.41
2023-01-23T02:39:53.794Z,46.08
2023-01-23T02:40:53.788Z,48.98
2023-01-23T02:41:53.771Z,50.11
2023-01-23T02:42:53.761Z,44.63
2023-01-23T02:43:53.763Z,44.79
2023-01-23T02:44:53.738Z,45.12
2023-01-23T02:45:53.837Z,51.08
2023-01-23T02:46:53.718Z,43.34
2023-01-23T02:47:53.713Z,43.02
2023-01-23T02:48:53.787Z,43.18
2023-01-23T02:49:53.713Z,43.18
2023-01-23T02:50:53.756Z,45.76
2023-01-23T02:51:53.663Z,47.53
2023-01-23T02:52:53.652Z,50.60
2023-01-23T02:53:53.646Z,44.63
2023-01-23T02:54:54.636Z,44.96
2023-01-23T02:55:53.629Z,44.47
2023-01-23T02:56:53.610Z,43.34
2023-01-23T02:57:53.623Z,44.47
2023-01-23T02:58:53.591Z,49.95
2023-01-23T02:59:53.589Z,44.79
2023-01-23T03:00:53.619Z,44.15
2023-01-23T03:02:25.555Z,45.76
2023-01-23T03:02:53.577Z,44.79
2023-01-23T03:03:53.553Z,43.67
2023-01-23T03:04:53.618Z,44.63
2023-01-23T03:05:53.511Z,49.95
2023-01-23T03:06:54.538Z,53.82
2023-01-23T03:07:53.511Z,46.08
2023-01-23T03:08:53.467Z,46.57
2023-01-23T03:09:53.510Z,46.57
2023-01-23T03:10:53.442Z,51.88
2023-01-23T03:11:53.452Z,45.44
2023-01-23T03:12:53.480Z,46.08
2023-01-23T03:13:53.447Z,49.63
2023-01-23T03:14:53.420Z,47.53
2023-01-23T03:15:53.430Z,48.34
2023-01-23T03:16:53.430Z,50.76
2023-01-23T03:17:53.365Z,50.43
2023-01-23T03:18:54.672Z,51.88
2023-01-23T03:19:54.384Z,46.41
2023-01-23T03:20:53.452Z,45.44
2023-01-23T03:21:53.357Z,52.21
2023-01-23T03:22:53.348Z,53.50
2023-01-23T03:23:53.327Z,50.11
2023-01-23T03:24:53.320Z,48.18
2023-01-23T03:25:53.334Z,46.08
2023-01-23T03:26:53.287Z,50.43
2023-01-23T03:27:53.285Z,46.57
2023-01-23T03:28:53.288Z,47.05
2023-01-23T03:29:53.264Z,50.76
2023-01-23T03:30:53.248Z,48.82
2023-01-23T03:31:53.274Z,52.21
2023-01-23T03:32:53.254Z,46.25
2023-01-23T03:33:53.224Z,51.88
2023-01-23T03:34:53.218Z,48.02
2023-01-23T03:35:53.199Z,50.76
2023-01-23T03:36:53.276Z,47.21
2023-01-23T03:37:53.184Z,48.34
2023-01-23T03:38:53.187Z,48.02
2023-01-23T03:39:53.185Z,54.30
2023-01-23T03:40:53.125Z,49.31
2023-01-23T03:41:53.189Z,47.37
2023-01-23T03:42:53.103Z,46.41
2023-01-23T03:43:53.107Z,51.40
2023-01-23T03:44:53.108Z,53.01
2023-01-23T03:45:53.160Z,56.07
2023-01-23T03:46:53.053Z,53.33
2023-01-23T03:47:53.058Z,49.47
2023-01-23T03:48:53.079Z,50.11
2023-01-23T03:49:53.053Z,52.53
2023-01-23T03:50:53.049Z,52.53
2023-01-23T03:51:53.034Z,48.02
2023-01-23T03:52:53.117Z,48.18
2023-01-23T03:53:53.019Z,46.73
2023-01-23T03:54:52.980Z,49.15
2023-01-23T03:55:52.974Z,48.50
2023-01-23T03:56:53.009Z,48.18
2023-01-23T03:57:52.940Z,52.85
2023-01-23T03:58:52.995Z,55.11
2023-01-23T03:59:52.927Z,55.27
2023-01-23T04:00:52.934Z,50.60
2023-01-23T04:01:52.928Z,47.37
2023-01-23T04:02:52.975Z,49.47
2023-01-23T04:03:52.890Z,51.72
2023-01-23T04:04:52.877Z,51.40
2023-01-23T04:05:52.890Z,50.11
2023-01-23T04:06:52.833Z,50.92
2023-01-23T04:07:52.842Z,50.27
2023-01-23T04:08:52.950Z,48.50
2023-01-23T04:09:52.842Z,56.72
2023-01-23T04:10:52.793Z,55.43
2023-01-23T04:11:52.815Z,56.24
2023-01-23T04:12:52.839Z,50.11
2023-01-23T04:13:52.775Z,53.33
2023-01-23T04:14:52.779Z,53.50
2023-01-23T04:15:52.781Z,52.53
2023-01-23T04:16:52.822Z,53.82
2023-01-23T04:17:52.769Z,54.62
2023-01-23T04:18:52.734Z,56.24
2023-01-23T04:19:52.715Z,53.98
2023-01-23T04:20:52.696Z,54.79
2023-01-23T04:21:52.697Z,50.92
2023-01-23T04:22:52.691Z,51.40
2023-01-23T04:23:52.679Z,54.30
2023-01-23T04:24:52.747Z,52.53
2023-01-23T04:25:52.647Z,56.07
2023-01-23T04:26:52.659Z,55.11
2023-01-23T04:27:53.629Z,50.76
2023-01-23T04:28:52.591Z,56.07
2023-01-23T04:29:52.639Z,52.69
2023-01-23T04:30:52.722Z,54.95
2023-01-23T04:31:52.621Z,57.04
2023-01-23T04:32:52.605Z,54.79
2023-01-23T04:33:52.562Z,56.24
2023-01-23T04:34:52.549Z,53.01
2023-01-23T04:35:52.543Z,57.04
2023-01-23T04:36:52.543Z,58.01
2023-01-23T04:37:52.508Z,54.62
2023-01-23T04:38:52.531Z,56.07
2023-01-23T04:39:52.502Z,53.98
2023-01-23T04:40:52.557Z,56.88
2023-01-23T04:41:52.465Z,56.40
2023-01-23T04:42:52.491Z,52.85
2023-01-23T04:43:52.457Z,53.33
2023-01-23T04:44:52.459Z,53.01
2023-01-23T04:45:52.525Z,53.82
2023-01-23T04:46:52.406Z,55.91
2023-01-23T04:47:52.410Z,55.75
2023-01-23T04:48:52.455Z,56.56
2023-01-23T04:49:52.395Z,58.97
2023-01-23T04:50:52.424Z,57.69
2023-01-23T04:51:52.397Z,55.27
2023-01-23T04:52:52.384Z,56.40
2023-01-23T04:53:52.368Z,57.04
2023-01-23T04:54:52.378Z,56.07
2023-01-23T04:55:52.326Z,56.72
2023-01-23T04:56:52.349Z,52.53
2023-01-23T04:57:52.335Z,56.07
2023-01-23T04:58:52.296Z,57.36
2023-01-23T04:59:52.297Z,56.88
2023-01-23T05:00:52.287Z,56.07
2023-01-23T05:01:52.274Z,56.56
2023-01-23T05:02:52.276Z,56.07
2023-01-23T05:03:52.264Z,57.36
2023-01-23T05:04:52.231Z,54.46
2023-01-23T05:05:52.221Z,57.20
2023-01-23T05:06:52.242Z,57.20
2023-01-23T05:07:52.206Z,56.56
2023-01-23T05:08:52.643Z,57.69
2023-01-23T05:09:53.204Z,58.49
2023-01-23T05:10:52.176Z,59.14
2023-01-23T05:11:52.169Z,59.30
2023-01-23T05:12:52.247Z,57.20
2023-01-23T05:13:52.167Z,57.04
2023-01-23T05:14:52.100Z,59.46
2023-01-23T05:15:52.192Z,58.01
2023-01-23T05:16:52.159Z,58.65
2023-01-23T05:17:52.076Z,58.81
2023-01-23T05:18:52.113Z,59.46
2023-01-23T05:19:52.083Z,60.42
2023-01-23T05:20:52.054Z,59.78
2023-01-23T05:21:52.052Z,57.04
2023-01-23T05:22:52.109Z,56.56
2023-01-23T05:23:52.055Z,61.87
2023-01-23T05:24:52.009Z,57.69
2023-01-23T05:25:52.037Z,55.75
2023-01-23T05:26:51.998Z,58.65
2023-01-23T05:27:51.973Z,60.10
2023-01-23T05:28:52.123Z,58.97
2023-01-23T05:29:51.969Z,58.65
2023-01-23T05:30:52.062Z,58.97
2023-01-23T05:31:51.944Z,61.23
2023-01-23T05:32:51.963Z,59.62
2023-01-23T05:33:51.903Z,59.78
2023-01-23T05:34:51.968Z,59.14
2023-01-23T05:35:51.908Z,59.94
2023-01-23T05:36:51.882Z,59.78
2023-01-23T05:37:51.908Z,59.46
2023-01-23T05:38:51.906Z,59.78
2023-01-23T05:39:51.855Z,59.78
2023-01-23T05:40:51.838Z,60.59
2023-01-23T05:41:51.845Z,58.49
2023-01-23T05:42:51.815Z,59.94
2023-01-23T05:43:51.817Z,60.59
2023-01-23T05:44:51.909Z,59.46
2023-01-23T05:45:51.861Z,60.91
2023-01-23T05:46:51.771Z,60.10
2023-01-23T05:47:51.779Z,56.72
2023-01-23T05:48:51.773Z,60.26
2023-01-23T05:49:51.728Z,59.14
2023-01-23T05:50:51.834Z,60.75
2023-01-23T05:51:51.746Z,58.97
2023-01-23T05:52:51.701Z,58.97
2023-01-23T05:53:51.706Z,59.94
2023-01-23T05:54:51.724Z,59.78
2023-01-23T05:55:51.731Z,60.10
2023-01-23T05:56:51.675Z,59.14
2023-01-23T05:57:51.670Z,57.69
2023-01-23T05:58:51.671Z,58.17
2023-01-23T05:59:51.657Z,58.33
2023-01-23T06:00:51.712Z,58.17
2023-01-23T06:01:51.621Z,59.62
2023-01-23T06:02:51.714Z,59.30
2023-01-23T06:03:51.686Z,59.46
2023-01-23T06:04:54.960Z,58.17
2023-01-23T06:05:51.599Z,58.65
2023-01-23T06:06:51.553Z,58.17
2023-01-23T06:07:51.556Z,55.43
2023-01-23T06:08:51.573Z,58.01
2023-01-23T06:09:51.532Z,57.69
2023-01-23T06:10:51.504Z,56.72
2023-01-23T06:11:51.517Z,56.88
2023-01-23T06:12:51.526Z,58.65
2023-01-23T06:13:51.494Z,58.17
2023-01-23T06:14:51.504Z,57.20
2023-01-23T06:15:51.540Z,60.75
2023-01-23T06:16:51.541Z,57.36
2023-01-23T06:17:51.526Z,60.59
2023-01-23T06:18:51.454Z,59.46
2023-01-23T06:19:51.436Z,57.20
2023-01-23T06:20:51.406Z,59.78
2023-01-23T06:21:51.432Z,60.26
2023-01-23T06:22:51.396Z,60.26
2023-01-23T06:23:51.383Z,60.59
2023-01-23T06:24:51.398Z,59.30
2023-01-23T06:25:51.382Z,58.65
2023-01-23T06:26:51.356Z,57.85
2023-01-23T06:27:53.444Z,58.17
2023-01-23T06:28:51.368Z,57.20
2023-01-23T06:29:51.331Z,57.69
2023-01-23T06:30:51.372Z,57.04
2023-01-23T06:31:51.383Z,58.17
2023-01-23T06:32:51.386Z,58.17
2023-01-23T06:33:51.290Z,57.85
2023-01-23T06:34:51.261Z,58.65
2023-01-23T06:35:51.295Z,59.30
2023-01-23T06:36:51.262Z,57.85
2023-01-23T06:37:51.225Z,62.84
2023-01-23T06:38:51.239Z,61.55
2023-01-23T06:39:51.233Z,60.10
2023-01-23T06:40:51.197Z,60.75
2023-01-23T06:41:51.206Z,59.62
2023-01-23T06:42:51.209Z,59.94
2023-01-23T06:43:51.172Z,59.14
2023-01-23T06:44:51.162Z,60.42
2023-01-23T06:45:51.191Z,60.91
2023-01-23T06:46:51.146Z,61.23
2023-01-23T06:47:51.111Z,59.78
2023-01-23T06:48:51.218Z,60.91
2023-01-23T06:49:51.115Z,59.78
2023-01-23T06:50:51.110Z,59.30
2023-01-23T06:51:51.110Z,59.78
2023-01-23T06:52:51.095Z,60.26
2023-01-23T06:53:51.041Z,60.75
2023-01-23T06:54:51.091Z,60.10
2023-01-23T06:55:51.049Z,59.62
2023-01-23T06:56:51.027Z,59.46
2023-01-23T06:57:51.009Z,56.07
2023-01-23T06:58:51.043Z,59.30
2023-01-23T06:59:51.012Z,58.01
2023-01-23T07:00:50.978Z,59.14
2023-01-23T07:01:51.024Z,59.94
2023-01-23T07:02:51.008Z,58.01
2023-01-23T07:03:50.962Z,59.78
2023-01-23T07:04:51.027Z,61.39
2023-01-23T07:05:50.922Z,59.46
2023-01-23T07:06:50.939Z,57.69
2023-01-23T07:07:50.905Z,59.46
2023-01-23T07:08:50.879Z,58.65
2023-01-23T07:09:50.939Z,59.14
2023-01-23T07:10:50.884Z,59.30
2023-01-23T07:11:50.871Z,55.75
2023-01-23T07:12:50.883Z,55.75
2023-01-23T07:13:50.878Z,58.01
2023-01-23T07:14:50.842Z,57.52
2023-01-23T07:15:50.852Z,56.40
2023-01-23T07:16:50.858Z,57.04
2023-01-23T07:17:50.815Z,57.69
2023-01-23T07:18:50.806Z,58.01
2023-01-23T07:19:50.813Z,56.72
2023-01-23T07:20:50.848Z,57.69
2023-01-23T07:21:50.765Z,58.49
2023-01-23T07:22:50.759Z,58.01
2023-01-23T07:23:50.766Z,57.04
2023-01-23T07:24:50.722Z,60.10
2023-01-23T07:25:50.755Z,59.14
2023-01-23T07:26:50.707Z,57.20
2023-01-23T07:27:50.718Z,55.91
2023-01-23T07:28:50.719Z,58.33
2023-01-23T07:29:50.698Z,58.65
2023-01-23T07:30:50.796Z,55.59
2023-01-23T07:31:50.728Z,55.91
2023-01-23T07:32:50.682Z,57.04
2023-01-23T07:33:50.607Z,57.69
2023-01-23T07:34:50.639Z,55.91
2023-01-23T07:35:50.639Z,57.20
2023-01-23T07:36:50.680Z,53.98
2023-01-23T07:37:50.627Z,55.59
2023-01-23T07:38:50.611Z,55.75
2023-01-23T07:39:50.618Z,54.46
2023-01-23T07:40:50.564Z,53.50
2023-01-23T07:41:50.578Z,56.88
2023-01-23T07:42:50.533Z,57.85
2023-01-23T07:43:50.576Z,57.36
2023-01-23T07:44:50.545Z,55.59
2023-01-23T07:45:50.514Z,57.20
2023-01-23T07:46:50.558Z,54.79
2023-01-23T07:47:50.493Z,56.56
2023-01-23T07:48:50.524Z,56.56
2023-01-23T07:49:50.492Z,56.56
2023-01-23T07:50:50.511Z,52.85
2023-01-23T07:51:50.470Z,54.79
2023-01-23T07:52:50.548Z,54.95
2023-01-23T07:53:50.428Z,56.40
2023-01-23T07:54:50.486Z,53.17
2023-01-23T07:55:50.466Z,56.72
2023-01-23T07:56:50.388Z,55.59
2023-01-23T07:57:50.445Z,57.52
2023-01-23T07:58:50.368Z,54.14
2023-01-23T07:59:50.367Z,52.53
2023-01-23T08:00:50.448Z,57.20
2023-01-23T08:01:50.368Z,58.01
2023-01-23T08:02:50.329Z,54.46
2023-01-23T08:03:50.388Z,56.07
2023-01-23T08:04:50.351Z,56.56
2023-01-23T08:05:50.317Z,57.69
2023-01-23T08:06:50.288Z,56.40
2023-01-23T08:07:52.285Z,54.95
2023-01-23T08:08:51.383Z,56.88
2023-01-23T08:09:50.281Z,58.17
2023-01-23T08:10:50.243Z,54.79
2023-01-23T08:11:50.263Z,53.98
2023-01-23T08:12:50.259Z,53.50
2023-01-23T08:13:50.237Z,56.24
2023-01-23T08:14:50.244Z,54.46
2023-01-23T08:15:50.230Z,53.98
2023-01-23T08:16:50.221Z,56.07
2023-01-23T08:17:50.194Z,55.43
2023-01-23T08:18:50.199Z,55.11
2023-01-23T08:19:50.172Z,55.59
2023-01-23T08:20:50.151Z,56.88
2023-01-23T08:21:50.157Z,55.59
2023-01-23T08:22:50.124Z,57.20
2023-01-23T08:23:50.105Z,53.01
2023-01-23T08:24:50.205Z,54.30
2023-01-23T08:25:50.811Z,53.33
2023-01-23T08:26:51.074Z,58.17
2023-01-23T08:27:50.090Z,54.62
2023-01-23T08:28:50.080Z,53.50
2023-01-23T08:29:50.079Z,53.98
2023-01-23T08:30:51.137Z,53.50
2023-01-23T08:31:50.072Z,56.24
2023-01-23T08:32:50.012Z,55.11
2023-01-23T08:33:50.032Z,56.40
2023-01-23T08:34:50.010Z,58.17
2023-01-23T08:35:50.004Z,57.69
2023-01-23T08:36:50.027Z,57.04
2023-01-23T08:37:49.979Z,55.59
2023-01-23T08:38:50.022Z,59.78
2023-01-23T08:39:49.946Z,58.17
2023-01-23T08:40:50.010Z,55.91
2023-01-23T08:41:49.914Z,55.43
2023-01-23T08:42:49.943Z,55.11
2023-01-23T08:43:49.903Z,56.40
2023-01-23T08:44:49.873Z,55.59
2023-01-23T08:45:49.904Z,54.79
2023-01-23T08:46:49.871Z,55.59
2023-01-23T08:47:49.873Z,53.98
2023-01-23T08:48:49.867Z,55.11
2023-01-23T08:49:49.862Z,53.66
2023-01-23T08:50:50.836Z,56.56
2023-01-23T08:51:49.829Z,56.07
2023-01-23T08:52:49.846Z,54.79
2023-01-23T08:53:49.777Z,55.91
2023-01-23T08:54:49.811Z,55.11
2023-01-23T08:55:49.763Z,53.17
2023-01-23T08:56:49.834Z,55.27
2023-01-23T08:57:49.777Z,53.98
2023-01-23T08:58:49.760Z,55.43
2023-01-23T08:59:49.728Z,55.91
2023-01-23T09:00:49.740Z,53.98
2023-01-23T09:01:49.779Z,55.27
2023-01-23T09:03:21.691Z,55.11
2023-01-23T09:03:49.714Z,54.14
2023-01-23T09:04:49.672Z,53.33
2023-01-23T09:05:49.673Z,54.46
2023-01-23T09:06:49.661Z,54.62
2023-01-23T09:07:49.686Z,50.92
2023-01-23T09:08:49.672Z,54.79
2023-01-23T09:09:49.655Z,51.56
2023-01-23T09:10:49.618Z,52.53
2023-01-23T09:11:49.617Z,56.88
2023-01-23T09:12:49.738Z,55.75
2023-01-23T09:13:50.212Z,54.95
2023-01-23T09:14:49.596Z,53.98
2023-01-23T09:15:49.574Z,51.56
2023-01-23T09:16:49.585Z,51.72
2023-01-23T09:17:50.521Z,55.43
2023-01-23T09:18:50.539Z,56.56
2023-01-23T09:19:49.519Z,57.04
2023-01-23T09:20:49.516Z,53.82
2023-01-23T09:21:49.502Z,52.05
2023-01-23T09:22:49.511Z,52.85
2023-01-23T09:23:49.478Z,58.17
2023-01-23T09:24:49.484Z,55.11
2023-01-23T09:25:49.464Z,55.11
2023-01-23T09:26:49.460Z,54.62
2023-01-23T09:27:49.465Z,56.07
2023-01-23T09:28:49.524Z,57.69
2023-01-23T09:29:49.409Z,56.88
2023-01-23T09:30:49.489Z,55.75
2023-01-23T09:31:49.461Z,56.88
2023-01-23T09:32:49.381Z,55.27
2023-01-23T09:33:49.401Z,55.91
2023-01-23T09:34:49.384Z,58.17
2023-01-23T09:35:49.351Z,56.24
2023-01-23T09:36:49.357Z,55.11
2023-01-23T09:37:49.339Z,55.91
2023-01-23T09:38:49.318Z,56.72
2023-01-23T09:39:49.333Z,55.27
2023-01-23T09:40:49.300Z,54.95
2023-01-23T09:41:49.330Z,54.95
2023-01-23T09:42:49.310Z,56.07
2023-01-23T09:43:49.268Z,55.43
2023-01-23T09:44:49.371Z,56.56
2023-01-23T09:45:49.289Z,54.79
2023-01-23T09:46:49.239Z,56.88
2023-01-23T09:47:49.224Z,55.59
2023-01-23T09:48:49.226Z,55.11
2023-01-23T09:49:49.220Z,55.11
2023-01-23T09:50:49.224Z,53.17
2023-01-23T09:51:49.181Z,52.53
2023-01-23T09:52:49.168Z,56.56
2023-01-23T09:53:49.153Z,56.56
2023-01-23T09:54:49.168Z,58.17
2023-01-23T09:55:49.186Z,56.72
2023-01-23T09:56:49.126Z,54.46
2023-01-23T09:57:49.127Z,58.49
2023-01-23T09:58:49.118Z,58.17
2023-01-23T09:59:59.898Z,54.79
2023-01-23T10:00:51.229Z,56.24
2023-01-23T10:01:49.086Z,55.11
2023-01-23T10:02:49.159Z,57.20
2023-01-23T10:03:49.052Z,58.81
2023-01-23T10:04:49.065Z,58.49
2023-01-23T10:05:49.056Z,57.20
2023-01-23T10:06:49.036Z,56.56
2023-01-23T10:07:49.019Z,57.52
2023-01-23T10:08:49.023Z,59.78
2023-01-23T10:09:48.998Z,58.17
2023-01-23T10:10:49.032Z,58.65
2023-01-23T10:11:48.970Z,58.01
2023-01-23T10:12:48.965Z,56.56
2023-01-23T10:13:48.960Z,56.56
2023-01-23T10:14:48.945Z,59.78
2023-01-23T10:15:48.956Z,59.14
2023-01-23T10:16:50.890Z,56.88
2023-01-23T10:17:49.905Z,55.11
2023-01-23T10:18:48.932Z,54.95
2023-01-23T10:19:48.919Z,53.33
2023-01-23T10:20:48.887Z,57.69
2023-01-23T10:21:48.880Z,55.27
2023-01-23T10:22:48.860Z,58.49
2023-01-23T10:23:48.864Z,55.27
2023-01-23T10:24:48.853Z,54.62
2023-01-23T10:25:48.837Z,55.43
2023-01-23T10:26:48.826Z,55.11
2023-01-23T10:27:48.813Z,57.20
2023-01-23T10:28:48.827Z,57.04
2023-01-23T10:29:48.787Z,57.69
2023-01-23T10:30:48.852Z,59.46
2023-01-23T10:31:48.823Z,57.52
2023-01-23T10:32:48.848Z,56.40
2023-01-23T10:33:48.777Z,58.97
2023-01-23T10:34:48.776Z,60.10
2023-01-23T10:35:48.745Z,57.20
2023-01-23T10:36:55.037Z,60.75
2023-01-23T10:37:50.715Z,58.81
2023-01-23T10:38:48.693Z,56.88
2023-01-23T10:39:48.699Z,55.75
2023-01-23T10:40:48.688Z,59.94
2023-01-23T10:41:54.392Z,57.36
2023-01-23T10:42:49.647Z,56.07
2023-01-23T10:43:48.641Z,58.17
2023-01-23T10:44:48.647Z,59.14
2023-01-23T10:45:48.667Z,57.04
2023-01-23T10:46:48.623Z,55.91
2023-01-23T10:47:54.654Z,58.33
2023-01-23T10:48:50.687Z,56.88
2023-01-23T10:49:48.607Z,58.65
2023-01-23T10:50:48.615Z,57.85
2023-01-23T10:51:49.582Z,55.27
2023-01-23T10:52:48.565Z,53.17
2023-01-23T10:53:48.573Z,59.14
2023-01-23T10:54:48.547Z,58.33
2023-01-23T10:55:48.547Z,56.56
2023-01-23T10:56:48.517Z,55.75
2023-01-23T10:57:48.554Z,57.04
2023-01-23T10:58:48.521Z,56.40
2023-01-23T10:59:48.488Z,58.01
2023-01-23T11:00:48.490Z,56.88
2023-01-23T11:01:57.396Z,58.17
2023-01-23T11:02:50.501Z,54.62
2023-01-23T11:03:48.449Z,56.40
2023-01-23T11:04:48.536Z,56.72
2023-01-23T11:05:52.953Z,58.17
2023-01-23T11:06:49.427Z,56.72
2023-01-23T11:07:48.412Z,56.24
2023-01-23T11:08:49.401Z,57.36
2023-01-23T11:09:48.387Z,58.33
2023-01-23T11:10:48.372Z,59.46
2023-01-23T11:11:48.372Z,57.36
2023-01-23T11:12:48.371Z,57.52
2023-01-23T11:13:48.350Z,57.04
2023-01-23T11:14:48.337Z,56.24
2023-01-23T11:15:48.360Z,58.01
2023-01-23T11:16:48.308Z,58.81
2023-01-23T11:17:48.320Z,55.11
2023-01-23T11:18:48.312Z,57.20
2023-01-23T11:19:48.294Z,53.33
2023-01-23T11:20:48.384Z,54.14
2023-01-23T11:21:48.276Z,58.65
2023-01-23T11:22:48.249Z,56.40
2023-01-23T11:23:48.246Z,58.65
2023-01-23T11:24:48.234Z,57.85
2023-01-23T11:25:48.247Z,56.88
2023-01-23T11:26:48.215Z,57.85
2023-01-23T11:27:48.209Z,57.20
2023-01-23T11:28:48.209Z,54.62
2023-01-23T11:29:48.196Z,56.56
2023-01-23T11:30:48.327Z,56.56
2023-01-23T11:31:48.336Z,56.40
2023-01-23T11:32:48.181Z,58.97
2023-01-23T11:33:48.149Z,56.88
2023-01-23T11:34:48.138Z,58.81
2023-01-23T11:35:48.141Z,57.69
2023-01-23T11:36:48.221Z,57.69
2023-01-23T11:37:48.093Z,56.07
2023-01-23T11:38:52.793Z,55.43
2023-01-23T11:39:50.075Z,57.69
2023-01-23T11:40:48.060Z,59.46
2023-01-23T11:41:48.080Z,57.69
2023-01-23T11:42:48.045Z,58.97
2023-01-23T11:43:48.058Z,57.69
2023-01-23T11:44:48.054Z,58.97
2023-01-23T11:45:48.017Z,58.65
2023-01-23T11:46:47.997Z,58.17
2023-01-23T11:47:48.012Z,58.17
2023-01-23T11:48:48.005Z,59.94
2023-01-23T11:49:48.984Z,59.30
2023-01-23T11:50:55.437Z,59.94
2023-01-23T11:51:49.962Z,60.75
2023-01-23T11:52:48.029Z,60.10
2023-01-23T11:53:47.950Z,56.88
2023-01-23T11:54:48.932Z,57.20
2023-01-23T11:55:47.938Z,58.33
2023-01-23T11:56:47.898Z,57.52
2023-01-23T11:57:47.904Z,60.75
2023-01-23T11:58:50.384Z,59.30
2023-01-23T11:59:48.868Z,57.52
2023-01-23T12:00:47.883Z,55.27
2023-01-23T12:01:58.438Z,57.52
2023-01-23T12:02:49.897Z,56.24
2023-01-23T12:03:47.914Z,54.46
2023-01-23T12:04:47.833Z,56.88
2023-01-23T12:05:47.798Z,57.85
2023-01-23T12:06:47.810Z,58.17
2023-01-23T12:07:47.795Z,58.81
2023-01-23T12:08:47.860Z,57.36
2023-01-23T12:09:47.780Z,57.85
2023-01-23T12:10:47.762Z,60.42
2023-01-23T12:11:47.754Z,59.78
2023-01-23T12:12:47.751Z,58.01
2023-01-23T12:13:47.723Z,58.97
2023-01-23T12:14:47.723Z,57.85
2023-01-23T12:15:47.737Z,57.52
2023-01-23T12:16:47.715Z,58.81
2023-01-23T12:17:47.722Z,59.30
2023-01-23T12:18:47.675Z,58.17
2023-01-23T12:19:47.657Z,60.59
2023-01-23T12:20:48.492Z,59.14
2023-01-23T12:21:48.671Z,60.59
2023-01-23T12:22:47.684Z,58.49
2023-01-23T12:23:47.616Z,59.30
2023-01-23T12:24:48.726Z,55.11
2023-01-23T12:25:47.609Z,59.46
2023-01-23T12:26:47.599Z,60.26
2023-01-23T12:27:47.652Z,57.85
2023-01-23T12:28:47.596Z,60.91
2023-01-23T12:29:47.553Z,60.91
2023-01-23T12:30:47.551Z,58.65
2023-01-23T12:31:47.682Z,59.62
2023-01-23T12:32:47.563Z,59.94
2023-01-23T12:33:47.525Z,59.78
2023-01-23T12:34:47.524Z,59.30
2023-01-23T12:35:47.530Z,60.26
2023-01-23T12:37:06.223Z,59.94
2023-01-23T12:37:49.497Z,60.75
2023-01-23T12:38:47.469Z,60.91
2023-01-23T12:39:47.455Z,59.94
2023-01-23T12:40:47.562Z,61.23
2023-01-23T12:41:47.450Z,60.91
2023-01-23T12:42:47.439Z,60.10
2023-01-23T12:43:47.418Z,60.91
2023-01-23T12:44:47.411Z,60.75
2023-01-23T12:45:47.412Z,62.04
2023-01-23T12:46:47.441Z,58.81
2023-01-23T12:47:48.387Z,57.52
2023-01-23T12:48:47.370Z,60.26
2023-01-23T12:49:47.364Z,55.11
2023-01-23T12:50:47.738Z,59.62
2023-01-23T12:51:47.343Z,57.52
2023-01-23T12:52:47.339Z,58.65